KMRN/MRN METAR and TAF weather

Enter ICAO airport designator
Station Type Date Time Source
KMRN METAR 2019/02/22 22:20 UTC NOAA

KMRN 222220Z AUTO 01003KT 4SM DZ SCT006 OVC019 08/08 A3035 RMK AO2 P0001 T00800075


Station Type Date Time Source
KMRN Decoded METAR 2019/02/22 22:20 UTC NOAA

Morganton, Morganton-Lenoir Airport, NC, United States (KMRN) 35-49-17N 081-36-39W
Feb 22, 2019 - 05:20 PM EST / 2019.02.22 2220 UTC
Wind: from the N (010 degrees) at 3 MPH (3 KT):0
Visibility: 4 mile(s):0
Sky conditions: overcast
Weather: drizzle
Precipitation last hour: 0.01 inches
Temperature: 46.4 F (8.0 C)
Dew Point: 45.5 F (7.5 C)
Relative Humidity: 96%
Pressure (altimeter): 30.35 in. Hg (1027 hPa)
ob: KMRN 222220Z AUTO 01003KT 4SM DZ SCT006 OVC019 08/08 A3035 RMK AO2 P0001 T00800075
cycle: 22

Station Type Date Time Source
KMRN TAF UTC NOAA

Error!


Example: see airport list